sensor_id;sensor_type;location;lat;lon;timestamp;P1;P2;P0
45871;PMS5003;32333;55.844;-3.210;2023-09-19T00:01:50;0;0;
45871;PMS5003;32333;55.844;-3.210;2023-09-19T00:04:17;0;0;
45871;PMS5003;32333;55.844;-3.210;2023-09-19T00:06:45;0;0;
45871;PMS5003;32333;55.844;-3.210;2023-09-19T00:09:13;0;0;
45871;PMS5003;32333;55.844;-3.210;2023-09-19T00:11:41;0;0;
45871;PMS5003;32333;55.844;-3.210;2023-09-19T00:14:35;0;0;
45871;PMS5003;32333;55.844;-3.210;2023-09-19T00:17:02;0;0;
45871;PMS5003;32333;55.844;-3.210;2023-09-19T00:19:30;0;0;
45871;PMS5003;32333;55.844;-3.210;2023-09-19T00:21:59;0;0;
45871;PMS5003;32333;55.844;-3.210;2023-09-19T00:24:26;0;0;
45871;PMS5003;32333;55.844;-3.210;2023-09-19T00:26:53;1;1;
45871;PMS5003;32333;55.844;-3.210;2023-09-19T00:29:22;76;76;
45871;PMS5003;32333;55.844;-3.210;2023-09-19T00:31:50;73;73;
45871;PMS5003;32333;55.844;-3.210;2023-09-19T00:34:18;61;61;
45871;PMS5003;32333;55.844;-3.210;2023-09-19T00:36:45;10;10;
45871;PMS5003;32333;55.844;-3.210;2023-09-19T00:39:12;7;7;
45871;PMS5003;32333;55.844;-3.210;2023-09-19T00:41:40;4;4;
45871;PMS5003;32333;55.844;-3.210;2023-09-19T00:44:35;0;0;
45871;PMS5003;32333;55.844;-3.210;2023-09-19T00:47:03;0;0;
45871;PMS5003;32333;55.844;-3.210;2023-09-19T00:49:31;1;1;
45871;PMS5003;32333;55.844;-3.210;2023-09-19T00:52:00;7;7;
45871;PMS5003;32333;55.844;-3.210;2023-09-19T00:54:27;46;46;
45871;PMS5003;32333;55.844;-3.210;2023-09-19T00:56:55;58;58;
45871;PMS5003;32333;55.844;-3.210;2023-09-19T00:59:22;10;9;
45871;PMS5003;32333;55.844;-3.210;2023-09-19T01:01:50;21;21;
45871;PMS5003;32333;55.844;-3.210;2023-09-19T01:04:19;7;7;
45871;PMS5003;32333;55.844;-3.210;2023-09-19T01:06:47;58;58;
45871;PMS5003;32333;55.844;-3.210;2023-09-19T01:09:16;1;1;
45871;PMS5003;32333;55.844;-3.210;2023-09-19T01:11:44;49;49;
45871;PMS5003;32333;55.844;-3.210;2023-09-19T01:14:37;43;43;
45871;PMS5003;32333;55.844;-3.210;2023-09-19T01:17:19;97;97;
45871;PMS5003;32333;55.844;-3.210;2023-09-19T01:20:03;37;37;
45871;PMS5003;32333;55.844;-3.210;2023-09-19T01:22:46;57;57;
45871;PMS5003;32333;55.844;-3.210;2023-09-19T01:26:04;37;37;
45871;PMS5003;32333;55.844;-3.210;2023-09-19T01:28:34;18;18;
45871;PMS5003;32333;55.844;-3.210;2023-09-19T01:31:12;7;7;
45871;PMS5003;32333;55.844;-3.210;2023-09-19T01:33:57;6;6;
45871;PMS5003;32333;55.844;-3.210;2023-09-19T01:36:26;4;4;
45871;PMS5003;32333;55.844;-3.210;2023-09-19T01:38:55;7;7;
45871;PMS5003;32333;55.844;-3.210;2023-09-19T01:41:26;9;9;
45871;PMS5003;32333;55.844;-3.210;2023-09-19T01:44:39;6;4;
45871;PMS5003;32333;55.844;-3.210;2023-09-19T01:47:23;58;58;
45871;PMS5003;32333;55.844;-3.210;2023-09-19T01:50:01;58;58;
45871;PMS5003;32333;55.844;-3.210;2023-09-19T01:52:38;10;10;
45871;PMS5003;32333;55.844;-3.210;2023-09-19T01:55:12;36;36;
45871;PMS5003;32333;55.844;-3.210;2023-09-19T01:57:47;51;51;
45871;PMS5003;32333;55.844;-3.210;2023-09-19T02:00:21;6;6;
45871;PMS5003;32333;55.844;-3.210;2023-09-19T02:02:51;27;24;
45871;PMS5003;32333;55.844;-3.210;2023-09-19T02:05:23;37;37;
45871;PMS5003;32333;55.844;-3.210;2023-09-19T02:07:53;21;21;
45871;PMS5003;32333;55.844;-3.210;2023-09-19T02:10:20;1;1;
45871;PMS5003;32333;55.844;-3.210;2023-09-19T02:14:35;1;1;
45871;PMS5003;32333;55.844;-3.210;2023-09-19T02:17:03;6;6;
45871;PMS5003;32333;55.844;-3.210;2023-09-19T02:19:32;7;7;
45871;PMS5003;32333;55.844;-3.210;2023-09-19T02:21:59;3;3;
45871;PMS5003;32333;55.844;-3.210;2023-09-19T02:24:27;1;1;
45871;PMS5003;32333;55.844;-3.210;2023-09-19T02:26:54;0;0;
45871;PMS5003;32333;55.844;-3.210;2023-09-19T02:29:23;1;1;
45871;PMS5003;32333;55.844;-3.210;2023-09-19T02:31:50;0;0;
45871;PMS5003;32333;55.844;-3.210;2023-09-19T02:34:17;0;0;
45871;PMS5003;32333;55.844;-3.210;2023-09-19T02:36:45;0;0;
45871;PMS5003;32333;55.844;-3.210;2023-09-19T02:39:12;0;0;
45871;PMS5003;32333;55.844;-3.210;2023-09-19T02:41:39;0;0;
45871;PMS5003;32333;55.844;-3.210;2023-09-19T02:44:36;0;0;
45871;PMS5003;32333;55.844;-3.210;2023-09-19T02:47:03;0;0;
45871;PMS5003;32333;55.844;-3.210;2023-09-19T02:49:30;0;0;
45871;PMS5003;32333;55.844;-3.210;2023-09-19T02:51:59;0;0;
45871;PMS5003;32333;55.844;-3.210;2023-09-19T02:54:26;0;0;
45871;PMS5003;32333;55.844;-3.210;2023-09-19T02:56:53;0;0;
45871;PMS5003;32333;55.844;-3.210;2023-09-19T02:59:22;0;0;
45871;PMS5003;32333;55.844;-3.210;2023-09-19T03:01:49;0;0;
45871;PMS5003;32333;55.844;-3.210;2023-09-19T03:04:16;0;0;
45871;PMS5003;32333;55.844;-3.210;2023-09-19T03:06:44;0;0;
45871;PMS5003;32333;55.844;-3.210;2023-09-19T03:09:11;0;0;
45871;PMS5003;32333;55.844;-3.210;2023-09-19T03:11:39;0;0;
45871;PMS5003;32333;55.844;-3.210;2023-09-19T03:14:35;0;0;
45871;PMS5003;32333;55.844;-3.210;2023-09-19T03:17:02;0;0;
45871;PMS5003;32333;55.844;-3.210;2023-09-19T03:19:30;0;0;
45871;PMS5003;32333;55.844;-3.210;2023-09-19T03:21:58;0;0;
45871;PMS5003;32333;55.844;-3.210;2023-09-19T03:24:25;0;0;
45871;PMS5003;32333;55.844;-3.210;2023-09-19T03:26:53;0;0;
45871;PMS5003;32333;55.844;-3.210;2023-09-19T03:29:20;0;0;
45871;PMS5003;32333;55.844;-3.210;2023-09-19T03:31:47;0;0;
45871;PMS5003;32333;55.844;-3.210;2023-09-19T03:34:15;0;0;
45871;PMS5003;32333;55.844;-3.210;2023-09-19T03:36:42;0;0;
45871;PMS5003;32333;55.844;-3.210;2023-09-19T03:39:11;0;0;
45871;PMS5003;32333;55.844;-3.210;2023-09-19T03:41:38;0;0;
45871;PMS5003;32333;55.844;-3.210;2023-09-19T03:44:34;0;0;
45871;PMS5003;32333;55.844;-3.210;2023-09-19T03:47:02;0;0;
45871;PMS5003;32333;55.844;-3.210;2023-09-19T03:49:29;0;0;
45871;PMS5003;32333;55.844;-3.210;2023-09-19T03:51:57;0;0;
45871;PMS5003;32333;55.844;-3.210;2023-09-19T03:54:25;0;0;
45871;PMS5003;32333;55.844;-3.210;2023-09-19T03:56:52;0;0;
45871;PMS5003;32333;55.844;-3.210;2023-09-19T03:59:19;1;1;
45871;PMS5003;32333;55.844;-3.210;2023-09-19T04:01:48;9;6;
45871;PMS5003;32333;55.844;-3.210;2023-09-19T04:04:15;3;3;
45871;PMS5003;32333;55.844;-3.210;2023-09-19T04:06:43;3;3;
45871;PMS5003;32333;55.844;-3.210;2023-09-19T04:09:10;6;6;
45871;PMS5003;32333;55.844;-3.210;2023-09-19T04:11:39;3;3;
45871;PMS5003;32333;55.844;-3.210;2023-09-19T04:14:36;0;0;
45871;PMS5003;32333;55.844;-3.210;2023-09-19T04:17:03;1;1;
45871;PMS5003;32333;55.844;-3.210;2023-09-19T04:19:31;3;3;
45871;PMS5003;32333;55.844;-3.210;2023-09-19T04:21:59;1;1;
45871;PMS5003;32333;55.844;-3.210;2023-09-19T04:24:26;1;1;
45871;PMS5003;32333;55.844;-3.210;2023-09-19T04:26:54;3;3;
45871;PMS5003;32333;55.844;-3.210;2023-09-19T04:29:23;1;1;
45871;PMS5003;32333;55.844;-3.210;2023-09-19T04:31:50;3;3;
45871;PMS5003;32333;55.844;-3.210;2023-09-19T04:34:18;1;1;
45871;PMS5003;32333;55.844;-3.210;2023-09-19T04:36:46;3;3;
45871;PMS5003;32333;55.844;-3.210;2023-09-19T04:39:13;3;3;
45871;PMS5003;32333;55.844;-3.210;2023-09-19T04:41:41;3;3;
45871;PMS5003;32333;55.844;-3.210;2023-09-19T04:44:36;1;1;
45871;PMS5003;32333;55.844;-3.210;2023-09-19T04:47:04;4;4;
45871;PMS5003;32333;55.844;-3.210;2023-09-19T04:49:33;3;3;
45871;PMS5003;32333;55.844;-3.210;2023-09-19T04:52:02;3;3;
45871;PMS5003;32333;55.844;-3.210;2023-09-19T04:54:31;1;1;
45871;PMS5003;32333;55.844;-3.210;2023-09-19T04:56:58;3;3;
45871;PMS5003;32333;55.844;-3.210;2023-09-19T04:59:25;3;3;
45871;PMS5003;32333;55.844;-3.210;2023-09-19T05:01:53;6;4;
45871;PMS5003;32333;55.844;-3.210;2023-09-19T05:04:21;3;3;
45871;PMS5003;32333;55.844;-3.210;2023-09-19T05:06:48;1;1;
45871;PMS5003;32333;55.844;-3.210;2023-09-19T05:09:16;4;4;
45871;PMS5003;32333;55.844;-3.210;2023-09-19T05:11:43;4;4;
45871;PMS5003;32333;55.844;-3.210;2023-09-19T05:14:35;4;4;
45871;PMS5003;32333;55.844;-3.210;2023-09-19T05:17:02;7;7;
45871;PMS5003;32333;55.844;-3.210;2023-09-19T05:19:30;15;15;
45871;PMS5003;32333;55.844;-3.210;2023-09-19T05:21:59;37;37;
45871;PMS5003;32333;55.844;-3.210;2023-09-19T05:24:26;55;55;
45871;PMS5003;32333;55.844;-3.210;2023-09-19T05:26:53;57;57;
45871;PMS5003;32333;55.844;-3.210;2023-09-19T05:29:21;49;49;
45871;PMS5003;32333;55.844;-3.210;2023-09-19T05:31:49;16;16;
45871;PMS5003;32333;55.844;-3.210;2023-09-19T05:34:16;31;31;
45871;PMS5003;32333;55.844;-3.210;2023-09-19T05:36:44;27;27;
45871;PMS5003;32333;55.844;-3.210;2023-09-19T05:39:11;30;30;
45871;PMS5003;32333;55.844;-3.210;2023-09-19T05:41:38;48;48;
45871;PMS5003;32333;55.844;-3.210;2023-09-19T05:44:35;45;45;
45871;PMS5003;32333;55.844;-3.210;2023-09-19T05:47:04;7;7;
45871;PMS5003;32333;55.844;-3.210;2023-09-19T05:49:32;28;28;
45871;PMS5003;32333;55.844;-3.210;2023-09-19T05:51:59;49;49;
45871;PMS5003;32333;55.844;-3.210;2023-09-19T05:54:28;9;9;
45871;PMS5003;32333;55.844;-3.210;2023-09-19T05:56:55;31;31;
45871;PMS5003;32333;55.844;-3.210;2023-09-19T05:59:22;42;42;
45871;PMS5003;32333;55.844;-3.210;2023-09-19T06:01:49;51;51;
45871;PMS5003;32333;55.844;-3.210;2023-09-19T06:04:17;15;15;
45871;PMS5003;32333;55.844;-3.210;2023-09-19T06:06:45;43;43;
45871;PMS5003;32333;55.844;-3.210;2023-09-19T06:09:12;58;58;
45871;PMS5003;32333;55.844;-3.210;2023-09-19T06:11:41;27;27;
45871;PMS5003;32333;55.844;-3.210;2023-09-19T06:14:35;15;15;
45871;PMS5003;32333;55.844;-3.210;2023-09-19T06:17:03;10;10;
45871;PMS5003;32333;55.844;-3.210;2023-09-19T06:19:30;24;21;
45871;PMS5003;32333;55.844;-3.210;2023-09-19T06:22:00;22;22;
45871;PMS5003;32333;55.844;-3.210;2023-09-19T06:24:28;15;15;
45871;PMS5003;32333;55.844;-3.210;2023-09-19T06:26:56;13;13;
45871;PMS5003;32333;55.844;-3.210;2023-09-19T06:29:24;13;13;
45871;PMS5003;32333;55.844;-3.210;2023-09-19T06:31:51;16;16;
45871;PMS5003;32333;55.844;-3.210;2023-09-19T06:34:19;18;18;
45871;PMS5003;32333;55.844;-3.210;2023-09-19T06:36:48;39;39;
45871;PMS5003;32333;55.844;-3.210;2023-09-19T06:39:15;22;22;
45871;PMS5003;32333;55.844;-3.210;2023-09-19T06:41:42;25;25;
45871;PMS5003;32333;55.844;-3.210;2023-09-19T06:44:35;16;16;
45871;PMS5003;32333;55.844;-3.210;2023-09-19T06:47:03;28;28;
45871;PMS5003;32333;55.844;-3.210;2023-09-19T06:49:30;31;31;
45871;PMS5003;32333;55.844;-3.210;2023-09-19T06:51:59;58;58;
45871;PMS5003;32333;55.844;-3.210;2023-09-19T06:54:26;63;63;
45871;PMS5003;32333;55.844;-3.210;2023-09-19T06:56:54;64;64;
45871;PMS5003;32333;55.844;-3.210;2023-09-19T06:59:21;58;58;
45871;PMS5003;32333;55.844;-3.210;2023-09-19T07:01:49;13;13;
45871;PMS5003;32333;55.844;-3.210;2023-09-19T07:04:17;36;36;
45871;PMS5003;32333;55.844;-3.210;2023-09-19T07:06:44;42;42;
45871;PMS5003;32333;55.844;-3.210;2023-09-19T07:09:15;37;37;
45871;PMS5003;32333;55.844;-3.210;2023-09-19T07:11:43;37;37;
45871;PMS5003;32333;55.844;-3.210;2023-09-19T07:14:36;36;36;
45871;PMS5003;32333;55.844;-3.210;2023-09-19T07:17:05;67;67;
45871;PMS5003;32333;55.844;-3.210;2023-09-19T07:19:33;48;46;
45871;PMS5003;32333;55.844;-3.210;2023-09-19T07:22:01;51;51;
45871;PMS5003;32333;55.844;-3.210;2023-09-19T07:24:29;66;66;
45871;PMS5003;32333;55.844;-3.210;2023-09-19T07:26:57;16;16;
45871;PMS5003;32333;55.844;-3.210;2023-09-19T07:29:24;18;18;
45871;PMS5003;32333;55.844;-3.210;2023-09-19T07:31:54;21;21;
45871;PMS5003;32333;55.844;-3.210;2023-09-19T07:34:23;61;61;
45871;PMS5003;32333;55.844;-3.210;2023-09-19T07:36:51;78;75;
45871;PMS5003;32333;55.844;-3.210;2023-09-19T07:39:19;18;18;
45871;PMS5003;32333;55.844;-3.210;2023-09-19T07:41:46;18;18;
45871;PMS5003;32333;55.844;-3.210;2023-09-19T07:44:35;78;78;
45871;PMS5003;32333;55.844;-3.210;2023-09-19T07:47:04;67;67;
45871;PMS5003;32333;55.844;-3.210;2023-09-19T07:49:33;51;51;
45871;PMS5003;32333;55.844;-3.210;2023-09-19T07:52:01;72;72;
45871;PMS5003;32333;55.844;-3.210;2023-09-19T07:54:30;67;67;
45871;PMS5003;32333;55.844;-3.210;2023-09-19T07:56:57;57;57;
45871;PMS5003;32333;55.844;-3.210;2023-09-19T07:59:25;55;55;
45871;PMS5003;32333;55.844;-3.210;2023-09-19T08:01:52;46;46;
45871;PMS5003;32333;55.844;-3.210;2023-09-19T08:04:22;33;33;
45871;PMS5003;32333;55.844;-3.210;2023-09-19T08:06:50;25;25;
45871;PMS5003;32333;55.844;-3.210;2023-09-19T08:09:19;21;21;
45871;PMS5003;32333;55.844;-3.210;2023-09-19T08:11:49;25;25;
45871;PMS5003;32333;55.844;-3.210;2023-09-19T08:14:36;21;21;
45871;PMS5003;32333;55.844;-3.210;2023-09-19T08:17:04;19;19;
45871;PMS5003;32333;55.844;-3.210;2023-09-19T08:19:34;4;4;
45871;PMS5003;32333;55.844;-3.210;2023-09-19T08:22:03;0;0;
45871;PMS5003;32333;55.844;-3.210;2023-09-19T08:24:55;0;0;
45871;PMS5003;32333;55.844;-3.210;2023-09-19T08:27:23;0;0;
45871;PMS5003;32333;55.844;-3.210;2023-09-19T08:29:55;0;0;
45871;PMS5003;32333;55.844;-3.210;2023-09-19T08:32:24;0;0;
45871;PMS5003;32333;55.844;-3.210;2023-09-19T08:35:05;0;0;
45871;PMS5003;32333;55.844;-3.210;2023-09-19T08:39:38;0;0;
45871;PMS5003;32333;55.844;-3.210;2023-09-19T08:44:37;0;0;
45871;PMS5003;32333;55.844;-3.210;2023-09-19T08:47:08;0;0;
45871;PMS5003;32333;55.844;-3.210;2023-09-19T08:49:41;0;0;
45871;PMS5003;32333;55.844;-3.210;2023-09-19T08:52:20;0;0;
45871;PMS5003;32333;55.844;-3.210;2023-09-19T08:54:55;0;0;
45871;PMS5003;32333;55.844;-3.210;2023-09-19T08:57:28;0;0;
45871;PMS5003;32333;55.844;-3.210;2023-09-19T09:00:00;0;0;
45871;PMS5003;32333;55.844;-3.210;2023-09-19T09:02:31;0;0;
45871;PMS5003;32333;55.844;-3.210;2023-09-19T09:05:00;0;0;
45871;PMS5003;32333;55.844;-3.210;2023-09-19T09:07:30;0;0;
45871;PMS5003;32333;55.844;-3.210;2023-09-19T09:09:59;0;0;
45871;PMS5003;32333;55.844;-3.210;2023-09-19T09:14:34;0;0;
45871;PMS5003;32333;55.844;-3.210;2023-09-19T09:17:01;0;0;
45871;PMS5003;32333;55.844;-3.210;2023-09-19T09:19:31;0;0;
45871;PMS5003;32333;55.844;-3.210;2023-09-19T09:22:05;2;1;
45871;PMS5003;32333;55.844;-3.210;2023-09-19T09:24:33;1;1;
45871;PMS5003;32333;55.844;-3.210;2023-09-19T09:27:02;2;1;
45871;PMS5003;32333;55.844;-3.210;2023-09-19T09:29:48;1;0;
45871;PMS5003;32333;55.844;-3.210;2023-09-19T09:32:17;0;0;
45871;PMS5003;32333;55.844;-3.210;2023-09-19T09:34:46;1;1;
45871;PMS5003;32333;55.844;-3.210;2023-09-19T09:37:15;1;1;
45871;PMS5003;32333;55.844;-3.210;2023-09-19T09:39:48;1;1;
45871;PMS5003;32333;55.844;-3.210;2023-09-19T09:44:34;0;0;
45871;PMS5003;32333;55.844;-3.210;2023-09-19T09:47:02;0;0;
45871;PMS5003;32333;55.844;-3.210;2023-09-19T09:49:29;0;0;
45871;PMS5003;32333;55.844;-3.210;2023-09-19T09:51:59;0;0;
45871;PMS5003;32333;55.844;-3.210;2023-09-19T09:54:28;0;0;
45871;PMS5003;32333;55.844;-3.210;2023-09-19T09:56:57;0;0;
45871;PMS5003;32333;55.844;-3.210;2023-09-19T09:59:58;0;0;
45871;PMS5003;32333;55.844;-3.210;2023-09-19T10:02:27;0;0;
45871;PMS5003;32333;55.844;-3.210;2023-09-19T10:04:56;0;0;
45871;PMS5003;32333;55.844;-3.210;2023-09-19T10:07:25;0;0;
45871;PMS5003;32333;55.844;-3.210;2023-09-19T10:09:53;0;0;
45871;PMS5003;32333;55.844;-3.210;2023-09-19T10:14:36;0;0;
45871;PMS5003;32333;55.844;-3.210;2023-09-19T10:17:05;0;0;
45871;PMS5003;32333;55.844;-3.210;2023-09-19T10:19:37;0;0;
45871;PMS5003;32333;55.844;-3.210;2023-09-19T10:22:09;0;0;
45871;PMS5003;32333;55.844;-3.210;2023-09-19T10:24:37;0;0;
45871;PMS5003;32333;55.844;-3.210;2023-09-19T10:27:06;0;0;
45871;PMS5003;32333;55.844;-3.210;2023-09-19T10:29:33;0;0;
45871;PMS5003;32333;55.844;-3.210;2023-09-19T10:32:03;0;0;
45871;PMS5003;32333;55.844;-3.210;2023-09-19T10:34:32;1;1;
45871;PMS5003;32333;55.844;-3.210;2023-09-19T10:37:02;0;0;
45871;PMS5003;32333;55.844;-3.210;2023-09-19T10:39:32;1;1;
45871;PMS5003;32333;55.844;-3.210;2023-09-19T10:42:01;0;0;
45871;PMS5003;32333;55.844;-3.210;2023-09-19T10:44:37;0;0;
45871;PMS5003;32333;55.844;-3.210;2023-09-19T10:47:09;0;0;
45871;PMS5003;32333;55.844;-3.210;2023-09-19T10:49:42;1;1;
45871;PMS5003;32333;55.844;-3.210;2023-09-19T10:52:11;2;0;
45871;PMS5003;32333;55.844;-3.210;2023-09-19T10:54:41;0;0;
45871;PMS5003;32333;55.844;-3.210;2023-09-19T10:57:13;0;0;
45871;PMS5003;32333;55.844;-3.210;2023-09-19T11:00:00;0;0;
45871;PMS5003;32333;55.844;-3.210;2023-09-19T11:02:29;0;0;
45871;PMS5003;32333;55.844;-3.210;2023-09-19T11:05:01;0;0;
45871;PMS5003;32333;55.844;-3.210;2023-09-19T11:07:56;0;0;
45871;PMS5003;32333;55.844;-3.210;2023-09-19T11:11:01;0;0;
45871;PMS5003;32333;55.844;-3.210;2023-09-19T11:14:37;0;0;
45871;PMS5003;32333;55.844;-3.210;2023-09-19T11:17:39;0;0;
45871;PMS5003;32333;55.844;-3.210;2023-09-19T11:20:22;0;0;
45871;PMS5003;32333;55.844;-3.210;2023-09-19T11:23:23;1;1;
45871;PMS5003;32333;55.844;-3.210;2023-09-19T11:25:50;1;1;
45871;PMS5003;32333;55.844;-3.210;2023-09-19T11:28:34;0;0;
45871;PMS5003;32333;55.844;-3.210;2023-09-19T11:31:42;1;1;
45871;PMS5003;32333;55.844;-3.210;2023-09-19T11:34:37;1;0;
45871;PMS5003;32333;55.844;-3.210;2023-09-19T11:37:59;0;0;
45871;PMS5003;32333;55.844;-3.210;2023-09-19T11:40:27;0;0;
45871;PMS5003;32333;55.844;-3.210;2023-09-19T11:44:34;0;0;
45871;PMS5003;32333;55.844;-3.210;2023-09-19T11:47:02;0;0;
45871;PMS5003;32333;55.844;-3.210;2023-09-19T11:49:32;0;0;
45871;PMS5003;32333;55.844;-3.210;2023-09-19T11:52:00;1;0;
45871;PMS5003;32333;55.844;-3.210;2023-09-19T11:54:29;0;0;
45871;PMS5003;32333;55.844;-3.210;2023-09-19T11:56:57;1;1;
45871;PMS5003;32333;55.844;-3.210;2023-09-19T11:59:27;0;0;
45871;PMS5003;32333;55.844;-3.210;2023-09-19T12:01:56;0;0;
45871;PMS5003;32333;55.844;-3.210;2023-09-19T12:04:35;1;0;
45871;PMS5003;32333;55.844;-3.210;2023-09-19T12:07:05;0;0;
45871;PMS5003;32333;55.844;-3.210;2023-09-19T12:09:34;0;0;
45871;PMS5003;32333;55.844;-3.210;2023-09-19T12:14:34;0;0;
45871;PMS5003;32333;55.844;-3.210;2023-09-19T12:17:02;0;0;
45871;PMS5003;32333;55.844;-3.210;2023-09-19T12:19:31;0;0;
45871;PMS5003;32333;55.844;-3.210;2023-09-19T12:21:59;0;0;
45871;PMS5003;32333;55.844;-3.210;2023-09-19T12:24:28;0;0;
45871;PMS5003;32333;55.844;-3.210;2023-09-19T12:26:59;0;0;
45871;PMS5003;32333;55.844;-3.210;2023-09-19T12:29:30;0;0;
45871;PMS5003;32333;55.844;-3.210;2023-09-19T12:31:59;0;0;
45871;PMS5003;32333;55.844;-3.210;2023-09-19T12:34:27;0;0;
45871;PMS5003;32333;55.844;-3.210;2023-09-19T12:37:04;0;0;
45871;PMS5003;32333;55.844;-3.210;2023-09-19T12:39:37;1;1;
45871;PMS5003;32333;55.844;-3.210;2023-09-19T12:44:34;0;0;
45871;PMS5003;32333;55.844;-3.210;2023-09-19T12:47:08;0;0;
45871;PMS5003;32333;55.844;-3.210;2023-09-19T12:50:04;0;0;
45871;PMS5003;32333;55.844;-3.210;2023-09-19T12:52:34;0;0;
45871;PMS5003;32333;55.844;-3.210;2023-09-19T12:55:04;0;0;
45871;PMS5003;32333;55.844;-3.210;2023-09-19T12:57:32;0;0;
45871;PMS5003;32333;55.844;-3.210;2023-09-19T13:00:01;0;0;
45871;PMS5003;32333;55.844;-3.210;2023-09-19T13:02:29;0;0;
45871;PMS5003;32333;55.844;-3.210;2023-09-19T13:04:58;0;0;
45871;PMS5003;32333;55.844;-3.210;2023-09-19T13:07:42;0;0;
45871;PMS5003;32333;55.844;-3.210;2023-09-19T13:10:09;0;0;
45871;PMS5003;32333;55.844;-3.210;2023-09-19T13:14:35;0;0;
45871;PMS5003;32333;55.844;-3.210;2023-09-19T13:17:04;0;0;
45871;PMS5003;32333;55.844;-3.210;2023-09-19T13:19:35;1;1;
45871;PMS5003;32333;55.844;-3.210;2023-09-19T13:22:05;0;0;
45871;PMS5003;32333;55.844;-3.210;2023-09-19T13:25:03;0;0;
45871;PMS5003;32333;55.844;-3.210;2023-09-19T13:27:32;0;0;
45871;PMS5003;32333;55.844;-3.210;2023-09-19T13:30:01;0;0;
45871;PMS5003;32333;55.844;-3.210;2023-09-19T13:32:29;0;0;
45871;PMS5003;32333;55.844;-3.210;2023-09-19T13:34:56;1;0;
45871;PMS5003;32333;55.844;-3.210;2023-09-19T13:37:24;1;0;
45871;PMS5003;32333;55.844;-3.210;2023-09-19T13:39:52;0;0;
45871;PMS5003;32333;55.844;-3.210;2023-09-19T13:44:34;2;0;
45871;PMS5003;32333;55.844;-3.210;2023-09-19T13:47:04;0;0;
45871;PMS5003;32333;55.844;-3.210;2023-09-19T13:49:31;0;0;
45871;PMS5003;32333;55.844;-3.210;2023-09-19T13:52:00;0;0;
45871;PMS5003;32333;55.844;-3.210;2023-09-19T13:54:28;1;1;
45871;PMS5003;32333;55.844;-3.210;2023-09-19T13:56:55;0;0;
45871;PMS5003;32333;55.844;-3.210;2023-09-19T13:59:23;0;0;
45871;PMS5003;32333;55.844;-3.210;2023-09-19T14:01:51;1;0;
45871;PMS5003;32333;55.844;-3.210;2023-09-19T14:04:19;1;1;
45871;PMS5003;32333;55.844;-3.210;2023-09-19T14:06:46;0;0;
45871;PMS5003;32333;55.844;-3.210;2023-09-19T14:09:14;0;0;
45871;PMS5003;32333;55.844;-3.210;2023-09-19T14:11:42;0;0;
45871;PMS5003;32333;55.844;-3.210;2023-09-19T14:14:35;0;0;
45871;PMS5003;32333;55.844;-3.210;2023-09-19T14:17:02;0;0;
45871;PMS5003;32333;55.844;-3.210;2023-09-19T14:19:30;0;0;
45871;PMS5003;32333;55.844;-3.210;2023-09-19T14:21:58;0;0;
45871;PMS5003;32333;55.844;-3.210;2023-09-19T14:24:26;0;0;
45871;PMS5003;32333;55.844;-3.210;2023-09-19T14:26:53;0;0;
45871;PMS5003;32333;55.844;-3.210;2023-09-19T14:29:22;0;0;
45871;PMS5003;32333;55.844;-3.210;2023-09-19T14:31:51;0;0;
45871;PMS5003;32333;55.844;-3.210;2023-09-19T14:34:18;1;1;
45871;PMS5003;32333;55.844;-3.210;2023-09-19T14:36:45;0;0;
45871;PMS5003;32333;55.844;-3.210;2023-09-19T14:39:15;0;0;
45871;PMS5003;32333;55.844;-3.210;2023-09-19T14:41:43;0;0;
45871;PMS5003;32333;55.844;-3.210;2023-09-19T14:44:34;0;0;
45871;PMS5003;32333;55.844;-3.210;2023-09-19T14:47:01;0;0;
45871;PMS5003;32333;55.844;-3.210;2023-09-19T14:49:29;0;0;
45871;PMS5003;32333;55.844;-3.210;2023-09-19T14:51:59;0;0;
45871;PMS5003;32333;55.844;-3.210;2023-09-19T14:54:27;0;0;
45871;PMS5003;32333;55.844;-3.210;2023-09-19T14:56:54;0;0;
45871;PMS5003;32333;55.844;-3.210;2023-09-19T14:59:21;0;0;
45871;PMS5003;32333;55.844;-3.210;2023-09-19T15:01:48;0;0;
45871;PMS5003;32333;55.844;-3.210;2023-09-19T15:04:15;0;0;
45871;PMS5003;32333;55.844;-3.210;2023-09-19T15:06:44;0;0;
45871;PMS5003;32333;55.844;-3.210;2023-09-19T15:09:11;0;0;
45871;PMS5003;32333;55.844;-3.210;2023-09-19T15:11:39;0;0;
45871;PMS5003;32333;55.844;-3.210;2023-09-19T15:14:35;0;0;
45871;PMS5003;32333;55.844;-3.210;2023-09-19T15:17:03;0;0;
45871;PMS5003;32333;55.844;-3.210;2023-09-19T15:19:31;0;0;
45871;PMS5003;32333;55.844;-3.210;2023-09-19T15:21:58;0;0;
45871;PMS5003;32333;55.844;-3.210;2023-09-19T15:24:25;0;0;
45871;PMS5003;32333;55.844;-3.210;2023-09-19T15:26:53;0;0;
45871;PMS5003;32333;55.844;-3.210;2023-09-19T15:29:21;0;0;
45871;PMS5003;32333;55.844;-3.210;2023-09-19T15:31:48;0;0;
45871;PMS5003;32333;55.844;-3.210;2023-09-19T15:34:15;0;0;
45871;PMS5003;32333;55.844;-3.210;2023-09-19T15:36:43;0;0;
45871;PMS5003;32333;55.844;-3.210;2023-09-19T15:39:10;0;0;
45871;PMS5003;32333;55.844;-3.210;2023-09-19T15:41:38;0;0;
45871;PMS5003;32333;55.844;-3.210;2023-09-19T15:44:35;0;0;
45871;PMS5003;32333;55.844;-3.210;2023-09-19T15:47:03;0;0;
45871;PMS5003;32333;55.844;-3.210;2023-09-19T15:49:30;0;0;
45871;PMS5003;32333;55.844;-3.210;2023-09-19T15:51:59;0;0;
45871;PMS5003;32333;55.844;-3.210;2023-09-19T15:54:26;0;0;
45871;PMS5003;32333;55.844;-3.210;2023-09-19T15:56:53;0;0;
45871;PMS5003;32333;55.844;-3.210;2023-09-19T15:59:21;0;0;
45871;PMS5003;32333;55.844;-3.210;2023-09-19T16:01:48;0;0;
45871;PMS5003;32333;55.844;-3.210;2023-09-19T16:04:16;0;0;
45871;PMS5003;32333;55.844;-3.210;2023-09-19T16:06:43;0;0;
45871;PMS5003;32333;55.844;-3.210;2023-09-19T16:09:10;0;0;
45871;PMS5003;32333;55.844;-3.210;2023-09-19T16:11:37;0;0;
45871;PMS5003;32333;55.844;-3.210;2023-09-19T16:14:35;0;0;
45871;PMS5003;32333;55.844;-3.210;2023-09-19T16:17:02;0;0;
45871;PMS5003;32333;55.844;-3.210;2023-09-19T16:19:30;0;0;
45871;PMS5003;32333;55.844;-3.210;2023-09-19T16:22:00;0;0;
45871;PMS5003;32333;55.844;-3.210;2023-09-19T16:24:28;0;0;
45871;PMS5003;32333;55.844;-3.210;2023-09-19T16:26:55;0;0;
45871;PMS5003;32333;55.844;-3.210;2023-09-19T16:29:23;0;0;
45871;PMS5003;32333;55.844;-3.210;2023-09-19T16:31:50;0;0;
45871;PMS5003;32333;55.844;-3.210;2023-09-19T16:34:17;0;0;
45871;PMS5003;32333;55.844;-3.210;2023-09-19T16:36:45;0;0;
45871;PMS5003;32333;55.844;-3.210;2023-09-19T16:39:12;0;0;
45871;PMS5003;32333;55.844;-3.210;2023-09-19T16:41:40;0;0;
45871;PMS5003;32333;55.844;-3.210;2023-09-19T16:44:34;0;0;
45871;PMS5003;32333;55.844;-3.210;2023-09-19T16:47:01;0;0;
45871;PMS5003;32333;55.844;-3.210;2023-09-19T16:49:30;0;0;
45871;PMS5003;32333;55.844;-3.210;2023-09-19T16:51:59;0;0;
45871;PMS5003;32333;55.844;-3.210;2023-09-19T16:54:26;1;1;
45871;PMS5003;32333;55.844;-3.210;2023-09-19T16:56:54;0;0;
45871;PMS5003;32333;55.844;-3.210;2023-09-19T16:59:22;0;0;
45871;PMS5003;32333;55.844;-3.210;2023-09-19T17:01:49;0;0;
45871;PMS5003;32333;55.844;-3.210;2023-09-19T17:04:16;0;0;
45871;PMS5003;32333;55.844;-3.210;2023-09-19T17:06:45;0;0;
45871;PMS5003;32333;55.844;-3.210;2023-09-19T17:09:50;0;0;
45871;PMS5003;32333;55.844;-3.210;2023-09-19T17:14:35;0;0;
45871;PMS5003;32333;55.844;-3.210;2023-09-19T17:17:03;0;0;
45871;PMS5003;32333;55.844;-3.210;2023-09-19T17:19:44;0;0;
45871;PMS5003;32333;55.844;-3.210;2023-09-19T17:22:12;0;0;